Vingaren — OZ2131 — position and weather

sailwx.info

Track history (hours):
 
Tides and Currents Weather Stations Pressure Air Temp Water Temp Dewpoint Dewpoint Depression Visibility Wind Speed Wind Dir Waves Ship Positions

Vingaren

Last reported at 2014-Jul-31 02:33 UTC. Time now 2014-Jul-31 03:22 UTC.
Position N 55°14' E 013°08'.

Length 89 m; draft 3.9 m.

Type: Cargo ship. MMSI: 231844000.

Date/timePositionNaut miles runAvg speedWind from/ knotsBaromVisibWave heightAir tempDewpointWater temp
2014-Jul-31 02:33N 55°14' E 013°08'8 7.8
2014-Jul-31 01:33N 55°14' E 012°55'8 8.1
2014-Jul-31 00:33N 55°17' E 012°41'8 8.2
2014-Jul-30 23:33N 55°25' E 012°40'10 9.9
2014-Jul-30 22:33N 55°35' E 012°42'1010.3
2014-Jul-30 21:33N 55°45' E 012°41'9 9.1
2014-Jul-30 20:33N 55°54' E 012°39'9 9.4
2014-Jul-30 19:33N 56°04' E 012°38'10 9.9
2014-Jul-30 18:33N 56°12' E 012°27'10 9.6
2014-Jul-30 17:33N 56°21' E 012°23'1010.2
2014-Jul-30 16:33N 56°31' E 012°24'10 9.6
2014-Jul-30 15:33N 56°41' E 012°25'9 9.5
2014-Jul-30 14:33N 56°50' E 012°25'4 3.6
2014-Jul-30 13:32N 56°53' E 012°29'0 0.0
2014-Jul-30 12:20N 56°53' E 012°29'0 0.0
2014-Jul-30 11:32N 56°53' E 012°29'0 0.0
2014-Jul-30 10:26N 56°53' E 012°29'0 0.0
2014-Jul-30 09:32N 56°53' E 012°29'0 0.0
2014-Jul-30 08:32N 56°53' E 012°29'0 0.0
2014-Jul-30 07:32N 56°53' E 012°29'0 0.0
2014-Jul-30 06:32N 56°53' E 012°29'0 0.0
2014-Jul-30 05:32N 56°53' E 012°29'0 0.0
2014-Jul-30 04:32N 56°53' E 012°29'0 0.0
2014-Jul-30 03:32N 56°53' E 012°29'0 0.0
2014-Jul-30 02:32N 56°53' E 012°29'0 0.0
2014-Jul-30 01:32N 56°53' E 012°29'0 0.0
2014-Jul-30 00:32N 56°53' E 012°29'0 0.0
2014-Jul-29 23:32N 56°53' E 012°29'0 0.0
2014-Jul-29 22:32N 56°53' E 012°29'0 0.0
2014-Jul-29 21:32N 56°53' E 012°29'0 0.0
2014-Jul-29 20:32N 56°53' E 012°29'0 0.0
2014-Jul-29 19:32N 56°53' E 012°29'0 0.0
2014-Jul-29 18:32N 56°53' E 012°29'0 0.0
2014-Jul-29 17:20N 56°53' E 012°29'0 0.0
2014-Jul-29 13:29N 56°53' E 012°29'0 0.0
2014-Jul-29 08:31N 56°53' E 012°29'0 0.0
2014-Jul-29 07:31N 56°53' E 012°29'0 0.0
2014-Jul-29 06:13N 56°53' E 012°29'0 0.0
2014-Jul-29 05:31N 56°53' E 012°29'0 0.0
2014-Jul-29 04:31N 56°53' E 012°29'0 0.0
2014-Jul-29 03:25N 56°53' E 012°29'0 0.0
2014-Jul-29 02:31N 56°53' E 012°29'0 0.0
2014-Jul-29 01:19N 56°53' E 012°29'0 0.0
2014-Jul-29 00:31N 56°53' E 012°29'0 0.0
2014-Jul-28 23:31N 56°53' E 012°29'0 0.0
2014-Jul-28 22:28N 56°53' E 012°29'0 0.0
2014-Jul-28 21:31N 56°53' E 012°29'0 0.0
2014-Jul-28 20:28N 56°53' E 012°29'0 0.0
2014-Jul-28 19:31N 56°53' E 012°29'0 0.0
2014-Jul-28 18:33N 56°53' E 012°29'6 5.8
2014-Jul-28 17:33N 56°48' E 012°25'9 9.2
2014-Jul-28 16:33N 56°39' E 012°24'9 9.2
2014-Jul-28 15:33N 56°29' E 012°24'9 9.2
2014-Jul-28 14:33N 56°20' E 012°23'9 9.2
2014-Jul-28 13:33N 56°12' E 012°28'9 9.1
2014-Jul-28 12:33N 56°04' E 012°38'9 9.1
2014-Jul-28 11:33N 55°56' E 012°44'9 8.9
2014-Jul-28 10:33N 55°47' E 012°42'9 9.2
2014-Jul-28 09:33N 55°38' E 012°42'10 9.5
2014-Jul-28 08:33N 55°28' E 012°43'9 9.0
2014-Jul-28 07:33N 55°19' E 012°42'9 8.8
2014-Jul-28 06:33N 55°16' E 012°56'9 9.4
2014-Jul-28 05:33N 55°15' E 013°12'9 9.4
2014-Jul-28 04:33N 55°15' E 013°29'9 9.1
2014-Jul-28 03:33N 55°14' E 013°45'9 9.4
2014-Jul-28 02:33N 55°14' E 014°01'9 9.3
2014-Jul-28 01:33N 55°15' E 014°17'10 9.5
2014-Jul-28 00:33N 55°22' E 014°28'9 9.1
2014-Jul-27 23:33N 55°26' E 014°42'9 9.0
2014-Jul-27 22:33N 55°27' E 014°58'9 9.2
2014-Jul-27 21:33N 55°28' E 015°14'9 9.1
2014-Jul-27 20:33N 55°29' E 015°30'9 9.0
2014-Jul-27 19:33N 55°30' E 015°46'9 9.0
2014-Jul-27 18:33N 55°30' E 016°02'9 9.2
2014-Jul-27 17:33N 55°31' E 016°18'9 9.0
2014-Jul-27 16:33N 55°32' E 016°34'9 9.0
2014-Jul-27 15:33N 55°33' E 016°50'9 9.0
2014-Jul-27 14:33N 55°34' E 017°06'9 9.2
2014-Jul-27 13:33N 55°34' E 017°22'9 9.2
2014-Jul-27 12:33N 55°35' E 017°38'9 9.3
2014-Jul-27 11:33N 55°36' E 017°55'9 9.4
2014-Jul-27 10:33N 55°37' E 018°11'9 9.3
2014-Jul-27 09:33N 55°37' E 018°28'9 9.4
2014-Jul-27 08:33N 55°38' E 018°44'9 9.3
2014-Jul-27 07:33N 55°39' E 019°01'9 9.0
2014-Jul-27 06:33N 55°40' E 019°17'9 9.1
2014-Jul-27 05:33N 55°41' E 019°33'9 9.0
2014-Jul-27 04:33N 55°42' E 019°49'9 9.0
2014-Jul-27 03:33N 55°42' E 020°04'9 8.9
2014-Jul-27 02:33N 55°43' E 020°20'9 9.0
2014-Jul-27 01:33N 55°44' E 020°36'15 0.8
2014-Jul-26 06:33N 55°43' E 021°03'6 5.6
2014-Jul-26 05:33N 55°43' E 020°53'2 1.5
2014-Jul-26 04:32N 55°43' E 020°50'0 0.0
2014-Jul-25 07:29N 55°43' E 020°50'0 0.0
2014-Jul-25 06:32N 55°43' E 020°50'0 0.0
2014-Jul-25 05:33N 55°43' E 020°50'6 6.4
2014-Jul-25 04:33N 55°47' E 020°42'8 8.2
2014-Jul-25 03:32N 55°55' E 020°35'25 8.3
2014-Jul-25 00:32N 56°16' E 020°14'9 8.8
2014-Jul-24 23:33N 56°24' E 020°07'9 8.8
2014-Jul-24 22:33N 56°32' E 019°59'9 8.7
2014-Jul-24 21:33N 56°39' E 019°51'9 8.8
2014-Jul-24 20:33N 56°47' E 019°43'9 9.0
2014-Jul-24 19:33N 56°55' E 019°35'9 9.1
2014-Jul-24 18:33N 57°03' E 019°27'9 9.2
2014-Jul-24 17:33N 57°11' E 019°19'9 9.2
2014-Jul-24 16:33N 57°19' E 019°11'9 9.1
2014-Jul-24 15:33N 57°28' E 019°04'9 9.1
2014-Jul-24 14:33N 57°35' E 018°54'4 3.2
2014-Jul-24 13:22N 57°37' E 018°49'0 0.0
2014-Jul-24 12:31N 57°37' E 018°49'0 0.0
2014-Jul-24 03:28N 57°37' E 018°49'0 0.0
2014-Jul-24 02:31N 57°37' E 018°49'0 0.0
2014-Jul-24 01:28N 57°37' E 018°49'0 0.0
2014-Jul-24 00:28N 57°37' E 018°49'0 0.0
2014-Jul-23 23:31N 57°37' E 018°49'0 0.0
2014-Jul-23 22:31N 57°37' E 018°49'0 0.0
2014-Jul-23 19:28N 57°37' E 018°49'0 0.0
2014-Jul-23 17:04N 57°37' E 018°49'0 0.0
2014-Jul-23 16:28N 57°37' E 018°49'0 0.0
2014-Jul-23 15:25N 57°37' E 018°49'0 0.0
2014-Jul-23 14:07N 57°37' E 018°49'0 0.0
2014-Jul-23 13:31N 57°37' E 018°49'0 0.0
2014-Jul-23 12:31N 57°37' E 018°49'0 0.0
2014-Jul-23 11:31N 57°37' E 018°49'0 0.0
2014-Jul-23 10:31N 57°37' E 018°49'0 0.0
2014-Jul-23 09:19N 57°37' E 018°49'0 0.0
2014-Jul-23 06:18N 57°37' E 018°49'0 0.0
2014-Jul-23 05:33N 57°37' E 018°49'0 0.0
2014-Jul-23 04:33N 57°37' E 018°49'0 0.0
2014-Jul-23 03:21N 57°37' E 018°49'0 0.0
2014-Jul-23 02:24N 57°37' E 018°49'0 0.0
2014-Jul-23 01:33N 57°37' E 018°49'0 0.0
2014-Jul-23 00:33N 57°37' E 018°49'0 0.0
2014-Jul-22 23:27N 57°37' E 018°49'0 0.0
2014-Jul-22 22:30N 57°37' E 018°49'0 0.0
2014-Jul-22 21:30N 57°37' E 018°49'0 0.0
2014-Jul-22 19:21N 57°37' E 018°49'0 0.0
2014-Jul-22 16:12N 57°37' E 018°49'0 0.0
2014-Jul-22 15:30N 57°37' E 018°49'0 0.0
2014-Jul-22 14:30N 57°37' E 018°49'0 0.0
2014-Jul-22 13:06N 57°37' E 018°49'0 0.0
2014-Jul-22 12:33N 57°37' E 018°49'0 0.0
2014-Jul-22 06:27N 57°37' E 018°49'0 0.0
2014-Jul-22 04:27N 57°37' E 018°49'0 0.0
2014-Jul-22 03:30N 57°37' E 018°49'0 0.0
2014-Jul-22 02:21N 57°37' E 018°49'0 0.0
2014-Jul-22 01:33N 57°37' E 018°49'0 0.0
2014-Jul-22 00:33N 57°37' E 018°49'0 0.0
2014-Jul-21 23:30N 57°37' E 018°49'0 0.0
2014-Jul-21 22:29N 57°37' E 018°49'0 0.0
2014-Jul-21 21:26N 57°37' E 018°49'0 0.0
2014-Jul-21 20:29N 57°37' E 018°49'0 0.0
2014-Jul-21 20:11N 57°37' E 018°49'0 0.0
2014-Jul-21 19:20N 57°37' E 018°49'0 0.0
2014-Jul-21 18:29N 57°37' E 018°49'0 0.0
2014-Jul-21 17:32N 57°37' E 018°49'0 0.0
2014-Jul-21 15:26N 57°37' E 018°49'0 0.0
2014-Jul-21 13:17N 57°37' E 018°49'  
Track history (hours):
 
Tides and Currents Weather Stations Pressure Air Temp Water Temp Dewpoint Dewpoint Depression Visibility Wind Speed Wind Dir Waves Ship Positions

Vingaren

Last reported at 2014-Jul-31 02:33 UTC. Time now 2014-Jul-31 03:22 UTC.
Position N 55°14' E 013°08'.

Length 89 m; draft 3.9 m.

Type: Cargo ship. MMSI: 231844000.

Date/timePositionNaut miles runAvg speedWind from/ knotsBaromVisibWave heightAir tempDewpointWater temp
2014-Jul-31 02:33N 55°14' E 013°08'8 7.8
2014-Jul-31 01:33N 55°14' E 012°55'8 8.1
2014-Jul-31 00:33N 55°17' E 012°41'8 8.2
2014-Jul-30 23:33N 55°25' E 012°40'10 9.9
2014-Jul-30 22:33N 55°35' E 012°42'1010.3
2014-Jul-30 21:33N 55°45' E 012°41'9 9.1
2014-Jul-30 20:33N 55°54' E 012°39'9 9.4
2014-Jul-30 19:33N 56°04' E 012°38'10 9.9
2014-Jul-30 18:33N 56°12' E 012°27'10 9.6
2014-Jul-30 17:33N 56°21' E 012°23'1010.2
2014-Jul-30 16:33N 56°31' E 012°24'10 9.6
2014-Jul-30 15:33N 56°41' E 012°25'9 9.5
2014-Jul-30 14:33N 56°50' E 012°25'4 3.6
2014-Jul-30 13:32N 56°53' E 012°29'0 0.0
2014-Jul-30 12:20N 56°53' E 012°29'0 0.0
2014-Jul-30 11:32N 56°53' E 012°29'0 0.0
2014-Jul-30 10:26N 56°53' E 012°29'0 0.0
2014-Jul-30 09:32N 56°53' E 012°29'0 0.0
2014-Jul-30 08:32N 56°53' E 012°29'0 0.0
2014-Jul-30 07:32N 56°53' E 012°29'0 0.0
2014-Jul-30 06:32N 56°53' E 012°29'0 0.0
2014-Jul-30 05:32N 56°53' E 012°29'0 0.0
2014-Jul-30 04:32N 56°53' E 012°29'0 0.0
2014-Jul-30 03:32N 56°53' E 012°29'0 0.0
2014-Jul-30 02:32N 56°53' E 012°29'0 0.0
2014-Jul-30 01:32N 56°53' E 012°29'0 0.0
2014-Jul-30 00:32N 56°53' E 012°29'0 0.0
2014-Jul-29 23:32N 56°53' E 012°29'0 0.0
2014-Jul-29 22:32N 56°53' E 012°29'0 0.0
2014-Jul-29 21:32N 56°53' E 012°29'0 0.0
2014-Jul-29 20:32N 56°53' E 012°29'0 0.0
2014-Jul-29 19:32N 56°53' E 012°29'0 0.0
2014-Jul-29 18:32N 56°53' E 012°29'0 0.0
2014-Jul-29 17:20N 56°53' E 012°29'0 0.0
2014-Jul-29 13:29N 56°53' E 012°29'0 0.0
2014-Jul-29 08:31N 56°53' E 012°29'0 0.0
2014-Jul-29 07:31N 56°53' E 012°29'0 0.0
2014-Jul-29 06:13N 56°53' E 012°29'0 0.0
2014-Jul-29 05:31N 56°53' E 012°29'0 0.0
2014-Jul-29 04:31N 56°53' E 012°29'0 0.0
2014-Jul-29 03:25N 56°53' E 012°29'0 0.0
2014-Jul-29 02:31N 56°53' E 012°29'0 0.0
2014-Jul-29 01:19N 56°53' E 012°29'0 0.0
2014-Jul-29 00:31N 56°53' E 012°29'0 0.0
2014-Jul-28 23:31N 56°53' E 012°29'0 0.0
2014-Jul-28 22:28N 56°53' E 012°29'0 0.0
2014-Jul-28 21:31N 56°53' E 012°29'0 0.0
2014-Jul-28 20:28N 56°53' E 012°29'0 0.0
2014-Jul-28 19:31N 56°53' E 012°29'0 0.0
2014-Jul-28 18:33N 56°53' E 012°29'6 5.8
2014-Jul-28 17:33N 56°48' E 012°25'9 9.2
2014-Jul-28 16:33N 56°39' E 012°24'9 9.2
2014-Jul-28 15:33N 56°29' E 012°24'9 9.2
2014-Jul-28 14:33N 56°20' E 012°23'9 9.2
2014-Jul-28 13:33N 56°12' E 012°28'9 9.1
2014-Jul-28 12:33N 56°04' E 012°38'9 9.1
2014-Jul-28 11:33N 55°56' E 012°44'9 8.9
2014-Jul-28 10:33N 55°47' E 012°42'9 9.2
2014-Jul-28 09:33N 55°38' E 012°42'10 9.5
2014-Jul-28 08:33N 55°28' E 012°43'9 9.0
2014-Jul-28 07:33N 55°19' E 012°42'9 8.8
2014-Jul-28 06:33N 55°16' E 012°56'9 9.4
2014-Jul-28 05:33N 55°15' E 013°12'9 9.4
2014-Jul-28 04:33N 55°15' E 013°29'9 9.1
2014-Jul-28 03:33N 55°14' E 013°45'9 9.4
2014-Jul-28 02:33N 55°14' E 014°01'9 9.3
2014-Jul-28 01:33N 55°15' E 014°17'10 9.5
2014-Jul-28 00:33N 55°22' E 014°28'9 9.1
2014-Jul-27 23:33N 55°26' E 014°42'9 9.0
2014-Jul-27 22:33N 55°27' E 014°58'9 9.2
2014-Jul-27 21:33N 55°28' E 015°14'9 9.1
2014-Jul-27 20:33N 55°29' E 015°30'9 9.0
2014-Jul-27 19:33N 55°30' E 015°46'9 9.0
2014-Jul-27 18:33N 55°30' E 016°02'9 9.2
2014-Jul-27 17:33N 55°31' E 016°18'9 9.0
2014-Jul-27 16:33N 55°32' E 016°34'9 9.0
2014-Jul-27 15:33N 55°33' E 016°50'9 9.0
2014-Jul-27 14:33N 55°34' E 017°06'9 9.2
2014-Jul-27 13:33N 55°34' E 017°22'9 9.2
2014-Jul-27 12:33N 55°35' E 017°38'9 9.3
2014-Jul-27 11:33N 55°36' E 017°55'9 9.4
2014-Jul-27 10:33N 55°37' E 018°11'9 9.3
2014-Jul-27 09:33N 55°37' E 018°28'9 9.4
2014-Jul-27 08:33N 55°38' E 018°44'9 9.3
2014-Jul-27 07:33N 55°39' E 019°01'9 9.0
2014-Jul-27 06:33N 55°40' E 019°17'9 9.1
2014-Jul-27 05:33N 55°41' E 019°33'9 9.0
2014-Jul-27 04:33N 55°42' E 019°49'9 9.0
2014-Jul-27 03:33N 55°42' E 020°04'9 8.9
2014-Jul-27 02:33N 55°43' E 020°20'9 9.0
2014-Jul-27 01:33N 55°44' E 020°36'15 0.8
2014-Jul-26 06:33N 55°43' E 021°03'6 5.6
2014-Jul-26 05:33N 55°43' E 020°53'2 1.5
2014-Jul-26 04:32N 55°43' E 020°50'0 0.0
2014-Jul-25 07:29N 55°43' E 020°50'0 0.0
2014-Jul-25 06:32N 55°43' E 020°50'0 0.0
2014-Jul-25 05:33N 55°43' E 020°50'6 6.4
2014-Jul-25 04:33N 55°47' E 020°42'8 8.2
2014-Jul-25 03:32N 55°55' E 020°35'25 8.3
2014-Jul-25 00:32N 56°16' E 020°14'9 8.8
2014-Jul-24 23:33N 56°24' E 020°07'9 8.8
2014-Jul-24 22:33N 56°32' E 019°59'9 8.7
2014-Jul-24 21:33N 56°39' E 019°51'9 8.8
2014-Jul-24 20:33N 56°47' E 019°43'9 9.0
2014-Jul-24 19:33N 56°55' E 019°35'9 9.1
2014-Jul-24 18:33N 57°03' E 019°27'9 9.2
2014-Jul-24 17:33N 57°11' E 019°19'9 9.2
2014-Jul-24 16:33N 57°19' E 019°11'9 9.1
2014-Jul-24 15:33N 57°28' E 019°04'9 9.1
2014-Jul-24 14:33N 57°35' E 018°54'4 3.2
2014-Jul-24 13:22N 57°37' E 018°49'0 0.0
2014-Jul-24 12:31N 57°37' E 018°49'0 0.0
2014-Jul-24 03:28N 57°37' E 018°49'0 0.0
2014-Jul-24 02:31N 57°37' E 018°49'0 0.0
2014-Jul-24 01:28N 57°37' E 018°49'0 0.0
2014-Jul-24 00:28N 57°37' E 018°49'0 0.0
2014-Jul-23 23:31N 57°37' E 018°49'0 0.0
2014-Jul-23 22:31N 57°37' E 018°49'0 0.0
2014-Jul-23 19:28N 57°37' E 018°49'0 0.0
2014-Jul-23 17:04N 57°37' E 018°49'0 0.0
2014-Jul-23 16:28N 57°37' E 018°49'0 0.0
2014-Jul-23 15:25N 57°37' E 018°49'0 0.0
2014-Jul-23 14:07N 57°37' E 018°49'0 0.0
2014-Jul-23 13:31N 57°37' E 018°49'0 0.0
2014-Jul-23 12:31N 57°37' E 018°49'0 0.0
2014-Jul-23 11:31N 57°37' E 018°49'0 0.0
2014-Jul-23 10:31N 57°37' E 018°49'0 0.0
2014-Jul-23 09:19N 57°37' E 018°49'0 0.0
2014-Jul-23 06:18N 57°37' E 018°49'0 0.0
2014-Jul-23 05:33N 57°37' E 018°49'0 0.0
2014-Jul-23 04:33N 57°37' E 018°49'0 0.0
2014-Jul-23 03:21N 57°37' E 018°49'0 0.0
2014-Jul-23 02:24N 57°37' E 018°49'0 0.0
2014-Jul-23 01:33N 57°37' E 018°49'0 0.0
2014-Jul-23 00:33N 57°37' E 018°49'0 0.0
2014-Jul-22 23:27N 57°37' E 018°49'0 0.0
2014-Jul-22 22:30N 57°37' E 018°49'0 0.0
2014-Jul-22 21:30N 57°37' E 018°49'0 0.0
2014-Jul-22 19:21N 57°37' E 018°49'0 0.0
2014-Jul-22 16:12N 57°37' E 018°49'0 0.0
2014-Jul-22 15:30N 57°37' E 018°49'0 0.0
2014-Jul-22 14:30N 57°37' E 018°49'0 0.0
2014-Jul-22 13:06N 57°37' E 018°49'0 0.0
2014-Jul-22 12:33N 57°37' E 018°49'0 0.0
2014-Jul-22 06:27N 57°37' E 018°49'0 0.0
2014-Jul-22 04:27N 57°37' E 018°49'0 0.0
2014-Jul-22 03:30N 57°37' E 018°49'0 0.0
2014-Jul-22 02:21N 57°37' E 018°49'0 0.0
2014-Jul-22 01:33N 57°37' E 018°49'0 0.0
2014-Jul-22 00:33N 57°37' E 018°49'0 0.0
2014-Jul-21 23:30N 57°37' E 018°49'0 0.0
2014-Jul-21 22:29N 57°37' E 018°49'0 0.0
2014-Jul-21 21:26N 57°37' E 018°49'0 0.0
2014-Jul-21 20:29N 57°37' E 018°49'0 0.0
2014-Jul-21 20:11N 57°37' E 018°49'0 0.0
2014-Jul-21 19:20N 57°37' E 018°49'0 0.0
2014-Jul-21 18:29N 57°37' E 018°49'0 0.0
2014-Jul-21 17:32N 57°37' E 018°49'0 0.0
2014-Jul-21 15:26N 57°37' E 018°49'0 0.0
2014-Jul-21 13:17N 57°37' E 018°49'  

Dump ship's entire track history